Time;durP1;ratioP1;P1;durP2;ratioP2;P2;SDS_P1;SDS_P2;PMS_P1;PMS_P2;Temp;Humidity;BMP_temperature;BMP_pressure;BME280_temperature;BME280_humidity;BME280_pressure;Samples;Min_cycle;Max_cycle;Signal;HPM_P1;HPM_P2
2023/12/04 00:00:42;;;;;;;0.05;0.05;;;;;;;;;;1729926;28;20636;-64
2023/12/04 00:01:33;;;;;;;0.22;0.22;;;;;;;;;;1732580;28;20613;-64
2023/12/04 00:02:25;;;;;;;0.10;0.10;;;;;;;;;;1732107;28;20613;-64
2023/12/04 00:03:16;;;;;;;0.10;0.10;;;;;;;;;;1731928;28;20596;-64
2023/12/04 00:04:07;;;;;;;0.10;0.10;;;;;;;;;;1731424;28;20294;-65
2023/12/04 00:04:59;;;;;;;0.10;0.10;;;;;;;;;;1731978;28;20283;-64
2023/12/04 00:05:51;;;;;;;0.30;0.30;;;;;;;;;;1730262;28;20243;-63
2023/12/04 00:06:42;;;;;;;0.20;0.20;;;;;;;;;;1732226;28;20204;-63
2023/12/04 00:07:34;;;;;;;0.10;0.10;;;;;;;;;;1731378;28;20204;-64
2023/12/04 00:08:25;;;;;;;0.47;0.47;;;;;;;;;;1732210;28;20636;-64
2023/12/04 00:09:16;;;;;;;0.30;0.30;;;;;;;;;;1731367;28;20209;-64
2023/12/04 00:10:09;;;;;;;0.20;0.20;;;;;;;;;;1731753;28;20206;-64
2023/12/04 00:11:00;;;;;;;0.30;0.30;;;;;;;;;;1730246;28;20267;-63
2023/12/04 00:11:51;;;;;;;0.30;0.30;;;;;;;;;;1731939;28;20298;-63
2023/12/04 00:12:43;;;;;;;0.10;0.10;;;;;;;;;;1731565;28;20239;-64
2023/12/04 00:13:35;;;;;;;0.10;0.10;;;;;;;;;;1731861;28;20729;-64
2023/12/04 00:14:26;;;;;;;0.10;0.10;;;;;;;;;;1731747;28;20225;-64
2023/12/04 00:15:18;;;;;;;0.20;0.20;;;;;;;;;;1730679;28;20208;-63
2023/12/04 00:16:09;;;;;;;0.15;0.15;;;;;;;;;;1731335;28;20239;-64
2023/12/04 00:17:00;;;;;;;0.20;0.20;;;;;;;;;;1732021;28;20208;-66
2023/12/04 00:17:52;;;;;;;0.13;0.13;;;;;;;;;;1731271;28;20243;-64
2023/12/04 00:18:43;;;;;;;0.68;0.68;;;;;;;;;;1732220;28;20646;-63
2023/12/04 00:19:35;;;;;;;0.20;0.20;;;;;;;;;;1731371;28;20243;-65
2023/12/04 00:20:26;;;;;;;0.25;0.25;;;;;;;;;;1732208;28;20752;-65
2023/12/04 00:21:19;;;;;;;0.38;0.38;;;;;;;;;;1732202;28;20204;-64
2023/12/04 00:22:11;;;;;;;0.35;0.35;;;;;;;;;;1730759;28;20216;-63
2023/12/04 00:23:02;;;;;;;0.10;0.10;;;;;;;;;;1732777;28;20213;-66
2023/12/04 00:23:53;;;;;;;0.00;0.00;;;;;;;;;;1736593;28;20212;-68
2023/12/04 00:24:45;;;;;;;0.20;0.20;;;;;;;;;;1740923;28;20227;-68
2023/12/04 00:25:36;;;;;;;0.32;0.32;;;;;;;;;;1735571;28;20236;-68
2023/12/04 00:26:27;;;;;;;0.30;0.30;;;;;;;;;;1740844;28;20267;-70
2023/12/04 00:27:19;;;;;;;0.30;0.30;;;;;;;;;;1732317;28;20232;-63
2023/12/04 00:28:10;;;;;;;0.30;0.30;;;;;;;;;;1731794;28;20209;-63
2023/12/04 00:29:02;;;;;;;0.20;0.20;;;;;;;;;;1731582;28;20610;-63
2023/12/04 00:29:53;;;;;;;0.10;0.10;;;;;;;;;;1731793;28;20215;-63
2023/12/04 00:30:44;;;;;;;0.30;0.30;;;;;;;;;;1730477;28;20239;-63
2023/12/04 00:31:36;;;;;;;0.20;0.20;;;;;;;;;;1731262;28;20207;-63
2023/12/04 00:32:27;;;;;;;0.20;0.20;;;;;;;;;;1730281;28;20636;-64
2023/12/04 00:33:18;;;;;;;0.20;0.20;;;;;;;;;;1728065;28;20714;-64
2023/12/04 00:34:12;;;;;;;0.13;0.13;;;;;;;;;;1729311;28;20710;-65
2023/12/04 00:35:03;;;;;;;0.10;0.10;;;;;;;;;;1731757;28;20214;-65
2023/12/04 00:35:54;;;;;;;0.10;0.10;;;;;;;;;;1734886;28;20255;-63
2023/12/04 00:36:47;;;;;;;0.20;0.20;;;;;;;;;;1738613;28;20218;-64
2023/12/04 00:37:38;;;;;;;0.20;0.20;;;;;;;;;;1737901;28;20657;-63
2023/12/04 00:38:30;;;;;;;0.10;0.10;;;;;;;;;;1739095;28;20326;-64
2023/12/04 00:39:21;;;;;;;0.10;0.10;;;;;;;;;;1737772;28;20290;-64
2023/12/04 00:40:13;;;;;;;0.28;0.28;;;;;;;;;;1738686;28;20687;-63
2023/12/04 00:41:05;;;;;;;0.40;0.40;;;;;;;;;;1736880;28;20227;-63
2023/12/04 00:41:56;;;;;;;0.30;0.30;;;;;;;;;;1738324;28;20721;-62
2023/12/04 00:42:48;;;;;;;0.10;0.10;;;;;;;;;;1737810;28;20233;-66
2023/12/04 00:43:39;;;;;;;0.30;0.30;;;;;;;;;;1732334;28;20803;-63
2023/12/04 00:44:31;;;;;;;0.17;0.17;;;;;;;;;;1738313;28;20204;-63
2023/12/04 00:45:22;;;;;;;0.03;0.03;;;;;;;;;;1737572;28;20686;-63
2023/12/04 00:46:13;;;;;;;0.30;0.30;;;;;;;;;;1730667;28;20649;-64
2023/12/04 00:47:05;;;;;;;0.10;0.10;;;;;;;;;;1731244;28;20254;-63
2023/12/04 00:47:56;;;;;;;0.10;0.10;;;;;;;;;;1731052;28;20687;-62
2023/12/04 00:48:47;;;;;;;0.00;0.00;;;;;;;;;;1731364;28;20201;-64
2023/12/04 00:49:39;;;;;;;0.10;0.10;;;;;;;;;;1731200;28;20270;-64
2023/12/04 00:50:30;;;;;;;0.10;0.10;;;;;;;;;;1730680;28;20681;-64
2023/12/04 00:51:22;;;;;;;0.10;0.10;;;;;;;;;;1731713;28;20203;-63
2023/12/04 00:52:14;;;;;;;0.22;0.22;;;;;;;;;;1731396;28;20294;-63
2023/12/04 00:53:06;;;;;;;0.22;0.22;;;;;;;;;;1731501;28;20267;-66
2023/12/04 00:53:57;;;;;;;0.20;0.20;;;;;;;;;;1731291;28;20825;-66
2023/12/04 00:54:49;;;;;;;0.20;0.20;;;;;;;;;;1731538;28;20207;-64
2023/12/04 00:55:40;;;;;;;0.20;0.20;;;;;;;;;;1726206;28;20211;-65
2023/12/04 00:56:32;;;;;;;0.20;0.20;;;;;;;;;;1731948;28;20226;-63
2023/12/04 00:57:23;;;;;;;0.13;0.13;;;;;;;;;;1730803;28;20701;-63
2023/12/04 00:58:14;;;;;;;0.00;0.00;;;;;;;;;;1731527;28;20506;-64
2023/12/04 00:59:10;;;;;;;0.10;0.10;;;;;;;;;;1730922;28;20219;-63
2023/12/04 01:00:01;;;;;;;0.10;0.10;;;;;;;;;;1731534;28;20683;-63
2023/12/04 01:00:52;;;;;;;0.00;0.00;;;;;;;;;;1729152;28;20262;-64
2023/12/04 01:01:44;;;;;;;0.10;0.10;;;;;;;;;;1731299;28;20199;-63
2023/12/04 01:02:35;;;;;;;0.10;0.10;;;;;;;;;;1731156;28;20215;-63
2023/12/04 01:03:27;;;;;;;0.10;0.10;;;;;;;;;;1731478;28;20204;-63
2023/12/04 01:04:18;;;;;;;0.10;0.10;;;;;;;;;;1730935;28;20228;-64
2023/12/04 01:05:09;;;;;;;0.20;0.20;;;;;;;;;;1731555;28;20241;-63
2023/12/04 01:06:01;;;;;;;0.30;0.30;;;;;;;;;;1729731;28;20235;-64
2023/12/04 01:06:52;;;;;;;0.40;0.40;;;;;;;;;;1731761;28;20647;-63
2023/12/04 01:07:46;;;;;;;0.10;0.10;;;;;;;;;;1730629;28;20211;-64
2023/12/04 01:08:37;;;;;;;0.20;0.20;;;;;;;;;;1731566;28;20632;-62
2023/12/04 01:09:29;;;;;;;0.10;0.10;;;;;;;;;;1731146;28;20208;-64
2023/12/04 01:10:20;;;;;;;0.20;0.20;;;;;;;;;;1730547;28;20213;-62
2023/12/04 01:11:12;;;;;;;0.10;0.10;;;;;;;;;;1730012;28;20203;-63
2023/12/04 01:12:03;;;;;;;0.20;0.20;;;;;;;;;;1729580;28;20722;-64
2023/12/04 01:12:55;;;;;;;0.10;0.10;;;;;;;;;;1730402;28;20689;-65
2023/12/04 01:13:46;;;;;;;0.20;0.20;;;;;;;;;;1725848;28;20208;-65
2023/12/04 01:14:39;;;;;;;0.10;0.10;;;;;;;;;;1731231;28;20204;-63
2023/12/04 01:15:30;;;;;;;0.40;0.40;;;;;;;;;;1726309;28;20224;-63
2023/12/04 01:16:21;;;;;;;0.20;0.20;;;;;;;;;;1731353;28;20311;-64
2023/12/04 01:17:13;;;;;;;0.20;0.20;;;;;;;;;;1730852;28;20211;-65
2023/12/04 01:18:04;;;;;;;0.10;0.10;;;;;;;;;;1730840;28;20205;-64
2023/12/04 01:18:56;;;;;;;0.30;0.30;;;;;;;;;;1731045;28;20216;-66
2023/12/04 01:19:47;;;;;;;0.30;0.30;;;;;;;;;;1731236;28;20472;-63
2023/12/04 01:20:38;;;;;;;0.10;0.10;;;;;;;;;;1730173;28;20245;-63
2023/12/04 01:21:30;;;;;;;0.20;0.20;;;;;;;;;;1730791;28;20202;-63
2023/12/04 01:22:21;;;;;;;0.05;0.05;;;;;;;;;;1729622;28;20296;-62
2023/12/04 01:23:14;;;;;;;0.32;0.32;;;;;;;;;;1728055;28;20293;-63
2023/12/04 01:24:06;;;;;;;0.15;0.15;;;;;;;;;;1727638;28;20647;-63
2023/12/04 01:24:57;;;;;;;0.20;0.20;;;;;;;;;;1730272;28;20214;-63
2023/12/04 01:25:48;;;;;;;0.10;0.10;;;;;;;;;;1726795;28;20661;-61
2023/12/04 01:26:40;;;;;;;0.13;0.13;;;;;;;;;;1730835;28;20435;-63
2023/12/04 01:27:31;;;;;;;0.10;0.10;;;;;;;;;;1730974;28;20208;-64
2023/12/04 01:28:23;;;;;;;0.40;0.40;;;;;;;;;;1731113;28;20212;-64
2023/12/04 01:29:14;;;;;;;0.00;0.00;;;;;;;;;;1731075;28;20723;-63
2023/12/04 01:30:07;;;;;;;0.10;0.10;;;;;;;;;;1731312;28;20207;-63
2023/12/04 01:31:00;;;;;;;0.20;0.20;;;;;;;;;;1728977;28;20314;-63
2023/12/04 01:31:51;;;;;;;0.30;0.30;;;;;;;;;;1731155;28;20213;-63
2023/12/04 01:32:43;;;;;;;0.10;0.10;;;;;;;;;;1729593;28;20220;-63
2023/12/04 01:33:34;;;;;;;0.13;0.13;;;;;;;;;;1725594;28;20621;-64
2023/12/04 01:34:26;;;;;;;0.10;0.10;;;;;;;;;;1730493;28;20237;-65
2023/12/04 01:35:17;;;;;;;0.30;0.30;;;;;;;;;;1727509;28;20207;-62
2023/12/04 01:36:09;;;;;;;0.20;0.20;;;;;;;;;;1736634;28;20251;-64
2023/12/04 01:37:00;;;;;;;0.10;0.10;;;;;;;;;;1738001;28;20729;-64
2023/12/04 01:37:52;;;;;;;0.00;0.00;;;;;;;;;;1737900;28;20206;-64
2023/12/04 01:38:45;;;;;;;0.10;0.10;;;;;;;;;;1738076;28;20220;-64
2023/12/04 01:39:37;;;;;;;0.10;0.10;;;;;;;;;;1738177;28;20817;-64
2023/12/04 01:40:28;;;;;;;0.10;0.10;;;;;;;;;;1736690;28;20208;-64
2023/12/04 01:41:20;;;;;;;0.25;0.25;;;;;;;;;;1737592;28;20241;-63
2023/12/04 01:42:11;;;;;;;0.22;0.22;;;;;;;;;;1738000;28;20696;-63
2023/12/04 01:43:02;;;;;;;0.22;0.22;;;;;;;;;;1738825;28;20605;-63
2023/12/04 01:43:54;;;;;;;0.10;0.10;;;;;;;;;;1739095;28;20725;-64
2023/12/04 01:44:45;;;;;;;0.13;0.13;;;;;;;;;;1739358;28;20628;-63
2023/12/04 01:45:36;;;;;;;0.10;0.10;;;;;;;;;;1737814;28;20205;-63
2023/12/04 01:46:29;;;;;;;0.15;0.15;;;;;;;;;;1739493;28;20255;-63
2023/12/04 01:47:21;;;;;;;0.10;0.10;;;;;;;;;;1738674;28;20235;-63
2023/12/04 01:48:14;;;;;;;0.20;0.20;;;;;;;;;;1739601;28;20570;-62
2023/12/04 01:49:06;;;;;;;0.20;0.20;;;;;;;;;;1738777;28;20211;-66
2023/12/04 01:49:57;;;;;;;0.10;0.10;;;;;;;;;;1739372;28;20207;-62
2023/12/04 01:50:48;;;;;;;0.13;0.13;;;;;;;;;;1737847;28;20515;-63
2023/12/04 01:51:40;;;;;;;0.20;0.20;;;;;;;;;;1738314;28;20211;-61
2023/12/04 01:52:31;;;;;;;0.10;0.10;;;;;;;;;;1739356;28;20733;-62
2023/12/04 01:53:23;;;;;;;0.25;0.25;;;;;;;;;;1739349;28;20205;-64
2023/12/04 01:54:16;;;;;;;0.40;0.40;;;;;;;;;;1738918;28;20212;-63
2023/12/04 01:55:09;;;;;;;0.30;0.30;;;;;;;;;;1739597;28;20212;-62
2023/12/04 01:56:01;;;;;;;0.35;0.35;;;;;;;;;;1737226;28;20237;-63
2023/12/04 01:56:52;;;;;;;0.40;0.40;;;;;;;;;;1739539;28;20209;-64
2023/12/04 01:57:43;;;;;;;0.20;0.20;;;;;;;;;;1738737;28;20289;-64
2023/12/04 01:58:35;;;;;;;0.10;0.10;;;;;;;;;;1739720;28;20201;-63
2023/12/04 01:59:26;;;;;;;0.10;0.10;;;;;;;;;;1739071;28;20301;-63
2023/12/04 02:00:20;;;;;;;0.20;0.20;;;;;;;;;;1737551;28;20209;-63
2023/12/04 02:01:12;;;;;;;0.30;0.30;;;;;;;;;;1739493;28;20230;-62
2023/12/04 02:02:04;;;;;;;0.25;0.25;;;;;;;;;;1739295;28;20200;-64
2023/12/04 02:02:56;;;;;;;0.10;0.10;;;;;;;;;;1739246;28;20202;-63
2023/12/04 02:03:47;;;;;;;0.20;0.20;;;;;;;;;;1739472;28;20696;-63
2023/12/04 02:04:39;;;;;;;0.20;0.20;;;;;;;;;;1740001;28;20718;-63
2023/12/04 02:05:30;;;;;;;0.10;0.10;;;;;;;;;;1738384;28;20241;-65
2023/12/04 02:06:21;;;;;;;0.40;0.40;;;;;;;;;;1740098;28;20648;-62
2023/12/04 02:07:12;;;;;;;0.30;0.30;;;;;;;;;;1739965;28;20597;-62
2023/12/04 02:08:05;;;;;;;0.10;0.10;;;;;;;;;;1740196;28;20645;-63
2023/12/04 02:08:57;;;;;;;0.15;0.15;;;;;;;;;;1739809;28;20210;-62
2023/12/04 02:09:49;;;;;;;0.00;0.00;;;;;;;;;;1739300;28;20683;-64
2023/12/04 02:10:41;;;;;;;0.10;0.10;;;;;;;;;;1730102;28;20245;-64
2023/12/04 02:11:32;;;;;;;0.10;0.10;;;;;;;;;;1731845;28;20262;-64
2023/12/04 02:12:25;;;;;;;0.10;0.10;;;;;;;;;;1731974;28;20266;-66
2023/12/04 02:13:16;;;;;;;0.20;0.20;;;;;;;;;;1732662;28;20307;-63
2023/12/04 02:14:07;;;;;;;0.00;0.00;;;;;;;;;;1732125;28;20210;-62
2023/12/04 02:14:59;;;;;;;0.10;0.10;;;;;;;;;;1731102;28;20614;-62
2023/12/04 02:15:53;;;;;;;0.10;0.10;;;;;;;;;;1727686;28;20246;-62
2023/12/04 02:16:44;;;;;;;0.03;0.03;;;;;;;;;;1731727;28;20207;-63
2023/12/04 02:17:37;;;;;;;0.20;0.20;;;;;;;;;;1731864;28;20686;-62
2023/12/04 02:18:28;;;;;;;0.20;0.20;;;;;;;;;;1726890;28;20255;-64
2023/12/04 02:19:20;;;;;;;0.10;0.10;;;;;;;;;;1730296;28;20210;-63
2023/12/04 02:20:13;;;;;;;0.10;0.10;;;;;;;;;;1732467;28;20313;-62
2023/12/04 02:21:05;;;;;;;0.20;0.20;;;;;;;;;;1728555;28;20231;-63
2023/12/04 02:21:56;;;;;;;0.10;0.10;;;;;;;;;;1731445;28;20250;-61
2023/12/04 02:22:47;;;;;;;0.30;0.30;;;;;;;;;;1729182;28;20240;-63
2023/12/04 02:23:39;;;;;;;0.15;0.15;;;;;;;;;;1732709;28;20321;-63
2023/12/04 02:24:34;;;;;;;0.10;0.10;;;;;;;;;;1728740;28;20617;-62
2023/12/04 02:25:26;;;;;;;0.00;0.00;;;;;;;;;;1728697;28;20270;-63
2023/12/04 02:26:19;;;;;;;0.10;0.10;;;;;;;;;;1729591;28;20239;-64
2023/12/04 02:27:12;;;;;;;0.00;0.00;;;;;;;;;;1732257;28;20211;-65
2023/12/04 02:28:06;;;;;;;0.20;0.20;;;;;;;;;;1729625;28;20659;-63
2023/12/04 02:28:59;;;;;;;0.13;0.13;;;;;;;;;;1730742;28;20309;-65
2023/12/04 02:29:53;;;;;;;0.20;0.20;;;;;;;;;;1727967;28;20211;-65
2023/12/04 02:30:45;;;;;;;0.20;0.20;;;;;;;;;;1729171;28;20336;-64
2023/12/04 02:31:37;;;;;;;0.22;0.22;;;;;;;;;;1732278;28;20254;-64
2023/12/04 02:32:30;;;;;;;0.13;0.13;;;;;;;;;;1730756;28;20210;-64
2023/12/04 02:33:24;;;;;;;0.20;0.20;;;;;;;;;;1730596;28;20632;-63
2023/12/04 02:34:16;;;;;;;0.10;0.10;;;;;;;;;;1730564;28;20210;-63
2023/12/04 02:35:10;;;;;;;0.30;0.30;;;;;;;;;;1727912;28;20207;-63
2023/12/04 02:36:01;;;;;;;0.13;0.13;;;;;;;;;;1728419;28;20312;-65
2023/12/04 02:36:53;;;;;;;0.20;0.20;;;;;;;;;;1731570;28;20209;-65
2023/12/04 02:37:45;;;;;;;0.10;0.10;;;;;;;;;;1729826;28;20213;-65
2023/12/04 02:38:36;;;;;;;0.10;0.10;;;;;;;;;;1732181;28;20272;-63
2023/12/04 02:39:27;;;;;;;0.10;0.10;;;;;;;;;;1729137;28;20582;-64
2023/12/04 02:40:27;;;;;;;0.10;0.10;;;;;;;;;;1728436;28;20938;-65
2023/12/04 02:41:18;;;;;;;0.20;0.20;;;;;;;;;;1729633;28;20701;-63
2023/12/04 02:42:10;;;;;;;0.10;0.10;;;;;;;;;;1731183;28;20710;-66
2023/12/04 02:43:02;;;;;;;0.10;0.10;;;;;;;;;;1728174;28;20210;-65
2023/12/04 02:43:53;;;;;;;0.00;0.00;;;;;;;;;;1730915;28;20702;-65
2023/12/04 02:44:45;;;;;;;0.10;0.10;;;;;;;;;;1727832;28;20215;-63
2023/12/04 02:45:36;;;;;;;0.20;0.20;;;;;;;;;;1730224;28;20348;-64
2023/12/04 02:46:27;;;;;;;0.10;0.10;;;;;;;;;;1730488;28;20753;-63
2023/12/04 02:47:19;;;;;;;0.17;0.17;;;;;;;;;;1729988;28;20693;-65
2023/12/04 02:48:10;;;;;;;0.10;0.10;;;;;;;;;;1730305;28;20214;-64
2023/12/04 02:49:01;;;;;;;0.30;0.30;;;;;;;;;;1731027;28;20740;-64
2023/12/04 02:49:53;;;;;;;0.10;0.10;;;;;;;;;;1726433;28;20622;-64
2023/12/04 02:50:44;;;;;;;0.20;0.20;;;;;;;;;;1730540;28;20248;-63
2023/12/04 02:51:35;;;;;;;0.17;0.17;;;;;;;;;;1731807;28;20198;-63
2023/12/04 02:52:27;;;;;;;0.10;0.10;;;;;;;;;;1731498;28;20632;-63
2023/12/04 02:53:18;;;;;;;0.38;0.38;;;;;;;;;;1732383;28;20209;-64
2023/12/04 02:54:09;;;;;;;0.10;0.10;;;;;;;;;;1730798;28;20352;-63
2023/12/04 02:55:01;;;;;;;0.05;0.05;;;;;;;;;;1728035;28;20210;-64
2023/12/04 02:55:53;;;;;;;0.10;0.10;;;;;;;;;;1735752;28;20241;-63
2023/12/04 02:56:45;;;;;;;0.10;0.10;;;;;;;;;;1739181;28;20256;-61
2023/12/04 02:57:36;;;;;;;0.10;0.10;;;;;;;;;;1738802;28;20205;-63
2023/12/04 02:58:27;;;;;;;0.13;0.13;;;;;;;;;;1738599;28;20673;-63
2023/12/04 02:59:19;;;;;;;0.28;0.28;;;;;;;;;;1738435;28;20672;-63
2023/12/04 03:00:11;;;;;;;0.20;0.20;;;;;;;;;;1735510;28;20212;-62
2023/12/04 03:01:03;;;;;;;0.10;0.10;;;;;;;;;;1735758;28;20232;-65
2023/12/04 03:01:54;;;;;;;0.10;0.10;;;;;;;;;;1739115;28;20214;-66
2023/12/04 03:02:46;;;;;;;0.20;0.20;;;;;;;;;;1738144;28;20216;-62
2023/12/04 03:03:37;;;;;;;0.05;0.05;;;;;;;;;;1739590;28;20691;-65
2023/12/04 03:04:29;;;;;;;0.10;0.10;;;;;;;;;;1738569;28;20518;-66
2023/12/04 03:05:20;;;;;;;0.10;0.10;;;;;;;;;;1739281;28;20217;-63
2023/12/04 03:06:15;;;;;;;0.20;0.20;;;;;;;;;;1742730;28;20229;-67
2023/12/04 03:07:06;;;;;;;0.10;0.10;;;;;;;;;;1745845;28;20234;-66
2023/12/04 03:07:58;;;;;;;0.17;0.17;;;;;;;;;;1744663;28;20296;-64
2023/12/04 03:08:49;;;;;;;0.20;0.20;;;;;;;;;;1742873;28;20242;-65
2023/12/04 03:09:40;;;;;;;0.20;0.20;;;;;;;;;;1739208;28;20205;-63
2023/12/04 03:10:32;;;;;;;0.15;0.15;;;;;;;;;;1737525;28;20671;-63
2023/12/04 03:11:25;;;;;;;0.10;0.10;;;;;;;;;;1739169;28;20205;-65
2023/12/04 03:12:16;;;;;;;0.13;0.13;;;;;;;;;;1738542;28;21035;-64
2023/12/04 03:13:08;;;;;;;0.28;0.28;;;;;;;;;;1738721;28;20216;-63
2023/12/04 03:14:01;;;;;;;0.30;0.30;;;;;;;;;;1738522;28;20206;-63
2023/12/04 03:14:52;;;;;;;0.40;0.40;;;;;;;;;;1738601;28;20210;-64
2023/12/04 03:15:44;;;;;;;0.10;0.10;;;;;;;;;;1737482;28;20243;-62
2023/12/04 03:16:35;;;;;;;0.15;0.15;;;;;;;;;;1739014;28;20232;-65
2023/12/04 03:17:27;;;;;;;0.10;0.10;;;;;;;;;;1738291;28;20214;-63
2023/12/04 03:18:18;;;;;;;0.13;0.13;;;;;;;;;;1739064;28;20212;-63
2023/12/04 03:19:09;;;;;;;0.10;0.10;;;;;;;;;;1737959;28;20221;-64
2023/12/04 03:20:01;;;;;;;0.10;0.10;;;;;;;;;;1738751;28;20238;-64
2023/12/04 03:20:52;;;;;;;0.10;0.10;;;;;;;;;;1737411;28;20269;-63
2023/12/04 03:21:43;;;;;;;0.10;0.10;;;;;;;;;;1739352;28;20285;-64
2023/12/04 03:22:35;;;;;;;0.20;0.20;;;;;;;;;;1738861;28;20236;-65
2023/12/04 03:23:26;;;;;;;0.10;0.10;;;;;;;;;;1738755;28;20623;-64
2023/12/04 03:24:17;;;;;;;0.05;0.05;;;;;;;;;;1738600;28;20209;-63
2023/12/04 03:25:10;;;;;;;0.05;0.05;;;;;;;;;;1738892;28;20212;-63
2023/12/04 03:26:01;;;;;;;0.10;0.10;;;;;;;;;;1737113;28;20233;-63
2023/12/04 03:26:53;;;;;;;0.30;0.30;;;;;;;;;;1741315;28;20208;-63
2023/12/04 03:27:45;;;;;;;0.20;0.20;;;;;;;;;;1738847;28;20210;-66
2023/12/04 03:28:36;;;;;;;0.20;0.20;;;;;;;;;;1739386;28;20217;-65
2023/12/04 03:29:28;;;;;;;0.10;0.10;;;;;;;;;;1738518;28;20218;-67
2023/12/04 03:30:20;;;;;;;0.10;0.10;;;;;;;;;;1737214;28;20613;-64
2023/12/04 03:31:11;;;;;;;0.10;0.10;;;;;;;;;;1738683;28;20488;-65
2023/12/04 03:32:03;;;;;;;0.10;0.10;;;;;;;;;;1739042;28;20695;-65
2023/12/04 03:32:54;;;;;;;0.30;0.30;;;;;;;;;;1738509;28;20210;-64
2023/12/04 03:33:45;;;;;;;0.10;0.10;;;;;;;;;;1739187;28;20202;-64
2023/12/04 03:34:37;;;;;;;0.15;0.15;;;;;;;;;;1738770;28;20375;-66
2023/12/04 03:35:28;;;;;;;0.30;0.30;;;;;;;;;;1737548;28;20495;-63
2023/12/04 03:36:20;;;;;;;0.10;0.10;;;;;;;;;;1738630;28;20871;-63
2023/12/04 03:37:11;;;;;;;0.10;0.10;;;;;;;;;;1738865;28;20206;-62
2023/12/04 03:38:02;;;;;;;0.10;0.10;;;;;;;;;;1738543;28;20618;-63
2023/12/04 03:38:54;;;;;;;0.17;0.17;;;;;;;;;;1738559;28;20635;-63
2023/12/04 03:39:45;;;;;;;0.20;0.20;;;;;;;;;;1738997;28;20728;-63
2023/12/04 03:40:36;;;;;;;0.20;0.20;;;;;;;;;;1737366;28;20611;-63
2023/12/04 03:41:28;;;;;;;0.00;0.00;;;;;;;;;;1738607;28;20653;-65
2023/12/04 03:42:20;;;;;;;0.10;0.10;;;;;;;;;;1738121;28;20215;-62
2023/12/04 03:43:11;;;;;;;0.10;0.10;;;;;;;;;;1738602;28;20209;-63
2023/12/04 03:44:03;;;;;;;0.20;0.20;;;;;;;;;;1738073;28;20205;-63
2023/12/04 03:44:54;;;;;;;0.20;0.20;;;;;;;;;;1738751;28;20213;-63
2023/12/04 03:45:46;;;;;;;0.38;0.38;;;;;;;;;;1737105;28;20236;-66
2023/12/04 03:46:37;;;;;;;0.20;0.20;;;;;;;;;;1738721;28;20287;-63
2023/12/04 03:47:28;;;;;;;0.13;0.13;;;;;;;;;;1737859;28;20211;-65
2023/12/04 03:48:20;;;;;;;0.22;0.22;;;;;;;;;;1738484;28;20206;-64
2023/12/04 03:49:11;;;;;;;0.22;0.22;;;;;;;;;;1737814;28;20220;-65
2023/12/04 03:50:03;;;;;;;0.10;0.10;;;;;;;;;;1737386;28;20205;-64
2023/12/04 03:50:54;;;;;;;0.10;0.10;;;;;;;;;;1737178;28;20286;-66
2023/12/04 03:51:46;;;;;;;0.28;0.28;;;;;;;;;;1739066;28;20205;-66
2023/12/04 03:52:37;;;;;;;0.10;0.10;;;;;;;;;;1738086;28;20300;-65
2023/12/04 03:53:29;;;;;;;0.32;0.32;;;;;;;;;;1738571;28;20252;-65
2023/12/04 03:54:20;;;;;;;0.28;0.28;;;;;;;;;;1737809;28;20270;-66
2023/12/04 03:55:11;;;;;;;0.20;0.20;;;;;;;;;;1738645;28;20654;-63
2023/12/04 03:56:03;;;;;;;0.30;0.30;;;;;;;;;;1736458;28;20795;-65
2023/12/04 03:56:54;;;;;;;0.15;0.15;;;;;;;;;;1738536;28;20202;-65
2023/12/04 03:57:48;;;;;;;0.20;0.20;;;;;;;;;;1738336;28;20668;-63
2023/12/04 03:58:39;;;;;;;0.03;0.03;;;;;;;;;;1738522;28;20300;-63
2023/12/04 03:59:31;;;;;;;0.10;0.10;;;;;;;;;;1737831;28;20202;-63
2023/12/04 04:00:22;;;;;;;0.20;0.20;;;;;;;;;;1737375;28;20210;-62
2023/12/04 04:01:14;;;;;;;0.20;0.20;;;;;;;;;;1737282;28;20238;-63
2023/12/04 04:02:05;;;;;;;0.22;0.22;;;;;;;;;;1738441;28;20347;-64
2023/12/04 04:02:57;;;;;;;0.20;0.20;;;;;;;;;;1738347;28;20197;-65
2023/12/04 04:03:48;;;;;;;0.22;0.22;;;;;;;;;;1739841;28;20210;-64
2023/12/04 04:04:39;;;;;;;0.20;0.20;;;;;;;;;;1739503;28;20202;-65
2023/12/04 04:05:34;;;;;;;0.30;0.30;;;;;;;;;;1737195;28;20865;-66
2023/12/04 04:06:25;;;;;;;0.10;0.10;;;;;;;;;;1737736;28;20230;-63
2023/12/04 04:07:16;;;;;;;0.03;0.03;;;;;;;;;;1737969;28;20202;-63
2023/12/04 04:08:08;;;;;;;0.10;0.10;;;;;;;;;;1738924;28;20728;-65
2023/12/04 04:08:59;;;;;;;0.25;0.25;;;;;;;;;;1738204;28;20279;-65
2023/12/04 04:09:51;;;;;;;0.10;0.10;;;;;;;;;;1739065;28;20200;-62
2023/12/04 04:10:42;;;;;;;0.20;0.20;;;;;;;;;;1737522;28;20282;-65
2023/12/04 04:11:33;;;;;;;0.20;0.20;;;;;;;;;;1740123;28;20212;-63
2023/12/04 04:12:25;;;;;;;0.30;0.30;;;;;;;;;;1740476;28;20335;-65
2023/12/04 04:13:17;;;;;;;0.00;0.00;;;;;;;;;;1741407;28;20685;-63
2023/12/04 04:14:08;;;;;;;0.10;0.10;;;;;;;;;;1741157;28;20739;-64
2023/12/04 04:15:00;;;;;;;0.30;0.30;;;;;;;;;;1740125;28;20721;-64
2023/12/04 04:15:51;;;;;;;0.20;0.20;;;;;;;;;;1737207;28;20780;-64
2023/12/04 04:16:42;;;;;;;0.10;0.10;;;;;;;;;;1739441;28;20198;-63
2023/12/04 04:17:34;;;;;;;0.10;0.10;;;;;;;;;;1738304;28;20218;-67
2023/12/04 04:18:26;;;;;;;0.10;0.10;;;;;;;;;;1739099;28;20609;-64
2023/12/04 04:19:17;;;;;;;0.10;0.10;;;;;;;;;;1740763;28;20210;-64
2023/12/04 04:20:11;;;;;;;0.20;0.20;;;;;;;;;;1741906;28;20285;-67
2023/12/04 04:21:02;;;;;;;0.20;0.20;;;;;;;;;;1738730;28;20242;-65
2023/12/04 04:21:54;;;;;;;0.20;0.20;;;;;;;;;;1739112;28;20228;-64
2023/12/04 04:22:46;;;;;;;0.10;0.10;;;;;;;;;;1738744;28;20233;-65
2023/12/04 04:23:37;;;;;;;0.20;0.20;;;;;;;;;;1739831;28;20726;-64
2023/12/04 04:24:30;;;;;;;0.30;0.30;;;;;;;;;;1740277;28;20617;-63
2023/12/04 04:25:22;;;;;;;0.10;0.10;;;;;;;;;;1739145;28;20216;-65
2023/12/04 04:26:13;;;;;;;0.30;0.30;;;;;;;;;;1739268;28;20221;-63
2023/12/04 04:27:05;;;;;;;0.17;0.17;;;;;;;;;;1742798;28;20204;-65
2023/12/04 04:27:56;;;;;;;0.10;0.10;;;;;;;;;;1737738;28;20352;-65
2023/12/04 04:28:48;;;;;;;0.00;0.00;;;;;;;;;;1738607;28;20216;-64
2023/12/04 04:29:40;;;;;;;0.15;0.15;;;;;;;;;;1737898;28;20238;-64
2023/12/04 04:30:31;;;;;;;0.10;0.10;;;;;;;;;;1736933;28;20702;-64
2023/12/04 04:31:22;;;;;;;0.13;0.13;;;;;;;;;;1738158;28;20279;-64
2023/12/04 04:32:14;;;;;;;0.10;0.10;;;;;;;;;;1737445;28;20202;-63
2023/12/04 04:33:05;;;;;;;0.10;0.10;;;;;;;;;;1738232;28;20218;-64
2023/12/04 04:33:57;;;;;;;0.20;0.20;;;;;;;;;;1737779;28;20692;-62
2023/12/04 04:34:48;;;;;;;0.10;0.10;;;;;;;;;;1738655;28;20205;-66
2023/12/04 04:35:39;;;;;;;0.30;0.30;;;;;;;;;;1736419;28;20283;-63
2023/12/04 04:36:31;;;;;;;0.10;0.10;;;;;;;;;;1737904;28;20618;-65
2023/12/04 04:37:22;;;;;;;0.00;0.00;;;;;;;;;;1737798;28;20266;-67
2023/12/04 04:38:13;;;;;;;0.08;0.08;;;;;;;;;;1738052;28;20207;-63
2023/12/04 04:39:06;;;;;;;0.10;0.10;;;;;;;;;;1737880;28;20216;-66
2023/12/04 04:39:57;;;;;;;0.20;0.20;;;;;;;;;;1738106;28;20210;-61
2023/12/04 04:40:48;;;;;;;0.20;0.20;;;;;;;;;;1736902;28;20328;-62
2023/12/04 04:41:40;;;;;;;0.10;0.10;;;;;;;;;;1738296;28;20217;-63
2023/12/04 04:42:31;;;;;;;0.20;0.20;;;;;;;;;;1737673;28;20205;-64
2023/12/04 04:43:22;;;;;;;0.10;0.10;;;;;;;;;;1738558;28;20577;-63
2023/12/04 04:44:16;;;;;;;0.10;0.10;;;;;;;;;;1737781;28;20271;-63
2023/12/04 04:45:07;;;;;;;0.20;0.20;;;;;;;;;;1738202;28;20213;-65
2023/12/04 04:45:58;;;;;;;0.00;0.00;;;;;;;;;;1736235;28;20307;-63
2023/12/04 04:46:50;;;;;;;0.30;0.30;;;;;;;;;;1738585;28;20204;-62
2023/12/04 04:47:41;;;;;;;0.20;0.20;;;;;;;;;;1737318;28;20218;-65
2023/12/04 04:48:32;;;;;;;0.25;0.25;;;;;;;;;;1738187;28;20569;-62
2023/12/04 04:49:24;;;;;;;0.20;0.20;;;;;;;;;;1737567;28;20565;-63
2023/12/04 04:50:15;;;;;;;0.10;0.10;;;;;;;;;;1737726;28;20217;-62
2023/12/04 04:51:06;;;;;;;0.20;0.20;;;;;;;;;;1737574;28;20217;-63
2023/12/04 04:51:58;;;;;;;0.30;0.30;;;;;;;;;;1738371;28;20521;-64
2023/12/04 04:52:49;;;;;;;0.13;0.13;;;;;;;;;;1737835;28;20267;-65
2023/12/04 04:53:40;;;;;;;0.30;0.30;;;;;;;;;;1738023;28;20263;-63
2023/12/04 04:54:33;;;;;;;0.10;0.10;;;;;;;;;;1737515;28;20238;-65
2023/12/04 04:55:24;;;;;;;0.10;0.10;;;;;;;;;;1737075;28;20206;-64
2023/12/04 04:56:15;;;;;;;0.10;0.10;;;;;;;;;;1737676;28;20317;-64
2023/12/04 04:57:08;;;;;;;0.00;0.00;;;;;;;;;;1737890;28;20202;-62
2023/12/04 04:57:59;;;;;;;0.20;0.20;;;;;;;;;;1737999;28;20270;-64
2023/12/04 04:58:50;;;;;;;0.10;0.10;;;;;;;;;;1738219;28;20205;-62
2023/12/04 04:59:43;;;;;;;0.10;0.10;;;;;;;;;;1738223;28;20223;-65
2023/12/04 05:00:34;;;;;;;0.10;0.10;;;;;;;;;;1735575;28;20237;-63
2023/12/04 05:01:26;;;;;;;0.20;0.20;;;;;;;;;;1738017;28;20268;-63
2023/12/04 05:02:17;;;;;;;0.10;0.10;;;;;;;;;;1737426;28;20225;-63
2023/12/04 05:03:09;;;;;;;0.10;0.10;;;;;;;;;;1737882;28;20255;-63
2023/12/04 05:04:00;;;;;;;0.20;0.20;;;;;;;;;;1737718;28;20246;-67
2023/12/04 05:04:52;;;;;;;0.20;0.20;;;;;;;;;;1738425;28;20226;-64
2023/12/04 05:05:43;;;;;;;0.10;0.10;;;;;;;;;;1736356;28;20250;-67
2023/12/04 05:06:34;;;;;;;0.10;0.10;;;;;;;;;;1737814;28;20221;-66
2023/12/04 05:07:26;;;;;;;0.13;0.13;;;;;;;;;;1737518;28;20681;-64
2023/12/04 05:08:17;;;;;;;0.10;0.10;;;;;;;;;;1738266;28;20275;-64
2023/12/04 05:09:09;;;;;;;0.15;0.15;;;;;;;;;;1737505;28;20205;-64
2023/12/04 05:10:00;;;;;;;0.10;0.10;;;;;;;;;;1738480;28;20213;-63